createdAt,value
2018-12-17T00:01:46.786Z,0.31
2018-12-17T00:04:16.114Z,0.33
2018-12-17T00:06:45.438Z,0.34
2018-12-17T00:09:14.713Z,0.34
2018-12-17T00:11:44.008Z,0.38
2018-12-17T00:14:13.285Z,0.38
2018-12-17T00:16:42.599Z,0.39
2018-12-17T00:19:11.953Z,0.37
2018-12-17T00:21:41.261Z,0.36
2018-12-17T00:24:10.690Z,0.37
2018-12-17T00:26:39.944Z,0.35
2018-12-17T00:29:09.219Z,0.33
2018-12-17T00:31:38.478Z,0.34
2018-12-17T00:34:07.800Z,0.34
2018-12-17T00:36:37.059Z,0.34
2018-12-17T00:39:07.638Z,0.35
2018-12-17T00:41:36.995Z,0.34
2018-12-17T00:44:06.435Z,0.35
2018-12-17T00:46:35.802Z,0.39
2018-12-17T00:49:05.053Z,0.38
2018-12-17T00:51:34.335Z,0.39
2018-12-17T00:54:03.695Z,0.40
2018-12-17T00:56:33.070Z,0.42
2018-12-17T00:59:02.317Z,0.44
2018-12-17T01:01:31.641Z,0.48
2018-12-17T01:04:00.999Z,0.49
2018-12-17T01:06:30.317Z,0.49
2018-12-17T01:08:59.597Z,0.54
2018-12-17T01:11:28.883Z,0.55
2018-12-17T01:13:58.158Z,0.59
2018-12-17T01:16:27.481Z,0.58
2018-12-17T01:18:56.725Z,0.59
2018-12-17T01:21:26.044Z,0.59
2018-12-17T01:23:55.325Z,0.61
2018-12-17T01:26:24.744Z,0.61
2018-12-17T01:28:54.028Z,0.59
2018-12-17T01:31:23.311Z,0.59
2018-12-17T01:33:52.579Z,0.58
2018-12-17T01:36:21.891Z,0.57
2018-12-17T01:38:51.201Z,0.57
2018-12-17T01:41:20.481Z,0.55
2018-12-17T01:43:49.755Z,0.56
2018-12-17T01:46:19.137Z,0.56
2018-12-17T01:48:48.459Z,0.55
2018-12-17T01:51:17.744Z,0.53
2018-12-17T01:53:47.065Z,0.55
2018-12-17T01:56:16.437Z,0.56
2018-12-17T01:58:45.776Z,0.57
2018-12-17T02:01:15.154Z,0.54
2018-12-17T02:03:44.425Z,0.53
2018-12-17T02:06:13.727Z,0.54
2018-12-17T02:08:42.987Z,0.53
2018-12-17T02:11:12.343Z,0.52
2018-12-17T02:13:41.642Z,0.53
2018-12-17T02:16:10.932Z,0.53
2018-12-17T02:18:40.219Z,0.55
2018-12-17T02:21:09.553Z,0.54
2018-12-17T02:23:38.779Z,0.53
2018-12-17T02:26:27.512Z,0.53
2018-12-17T02:28:56.798Z,0.55
2018-12-17T02:31:26.091Z,0.52
2018-12-17T02:33:55.369Z,0.50
2018-12-17T02:36:24.731Z,0.51
2018-12-17T02:38:54.103Z,0.50
2018-12-17T02:41:23.402Z,0.48
2018-12-17T02:43:52.674Z,0.49
2018-12-17T02:46:22.011Z,0.49
2018-12-17T02:48:51.333Z,0.53
2018-12-17T02:51:20.604Z,0.54
2018-12-17T02:53:49.935Z,0.54
2018-12-17T02:56:19.323Z,0.57
2018-12-17T02:58:48.640Z,0.58
2018-12-17T03:01:17.900Z,0.57
2018-12-17T03:03:47.200Z,0.59
2018-12-17T03:06:16.534Z,0.63
2018-12-17T03:08:45.859Z,0.64
2018-12-17T03:11:15.222Z,0.66
2018-12-17T03:13:44.545Z,0.68
2018-12-17T03:16:13.862Z,0.69
2018-12-17T03:18:43.172Z,0.72
2018-12-17T03:21:12.543Z,0.72
2018-12-17T03:23:41.847Z,0.72
2018-12-17T03:26:11.138Z,0.73
2018-12-17T03:28:40.384Z,0.73
2018-12-17T03:31:09.652Z,0.75
2018-12-17T03:33:38.902Z,0.77
2018-12-17T03:36:08.178Z,0.76
2018-12-17T03:38:37.538Z,0.79
2018-12-17T03:41:06.865Z,0.78
2018-12-17T03:43:36.132Z,0.86
2018-12-17T03:46:05.452Z,0.80
2018-12-17T03:48:34.705Z,0.79
2018-12-17T03:51:04.065Z,0.78
2018-12-17T03:53:33.446Z,0.74
2018-12-17T03:56:02.752Z,0.74
2018-12-17T03:58:32.043Z,0.75
2018-12-17T04:01:01.366Z,0.76
2018-12-17T04:03:30.744Z,0.76
2018-12-17T04:06:00.063Z,0.75
2018-12-17T04:08:29.338Z,0.76
2018-12-17T04:10:58.621Z,0.76
2018-12-17T04:13:27.939Z,0.79
2018-12-17T04:15:57.192Z,0.78
2018-12-17T04:18:26.512Z,0.76
2018-12-17T04:20:55.852Z,0.74
2018-12-17T04:23:25.147Z,0.75
2018-12-17T04:25:54.428Z,0.75
2018-12-17T04:28:23.712Z,0.72
2018-12-17T04:30:53.047Z,0.73
2018-12-17T04:33:22.390Z,0.74
2018-12-17T04:35:51.721Z,0.73
2018-12-17T04:38:20.981Z,0.79
2018-12-17T04:40:50.221Z,0.77
2018-12-17T04:43:19.528Z,0.72
2018-12-17T04:45:48.877Z,0.73
2018-12-17T04:48:18.181Z,0.72
2018-12-17T04:50:47.421Z,0.72
2018-12-17T04:53:16.668Z,0.72
2018-12-17T04:55:45.956Z,0.72
2018-12-17T04:58:15.244Z,0.72
2018-12-17T05:00:44.571Z,0.72
2018-12-17T05:03:13.899Z,0.72
2018-12-17T05:05:43.163Z,0.70
2018-12-17T05:08:12.458Z,0.69
2018-12-17T05:10:41.745Z,0.71
2018-12-17T05:13:11.090Z,0.71
2018-12-17T05:15:40.382Z,0.70
2018-12-17T05:18:09.685Z,0.69
2018-12-17T05:20:38.937Z,0.73
2018-12-17T05:23:08.205Z,0.71
2018-12-17T05:25:37.570Z,0.73
2018-12-17T05:28:07.002Z,0.73
2018-12-17T05:30:36.315Z,0.71
2018-12-17T05:33:05.646Z,0.73
2018-12-17T05:35:35.826Z,0.75
2018-12-17T05:38:05.255Z,0.77
2018-12-17T05:40:34.623Z,0.75
2018-12-17T05:43:03.909Z,0.73
2018-12-17T05:45:33.229Z,0.73
2018-12-17T05:48:02.509Z,0.71
2018-12-17T05:50:31.779Z,0.70
2018-12-17T05:53:01.029Z,0.74
2018-12-17T05:55:30.447Z,0.74
2018-12-17T05:57:59.741Z,0.74
2018-12-17T06:00:29.114Z,0.74
2018-12-17T06:02:58.398Z,0.77
2018-12-17T06:05:27.684Z,0.79
2018-12-17T06:07:59.925Z,0.80
2018-12-17T06:10:29.227Z,0.79
2018-12-17T06:12:58.505Z,0.80
2018-12-17T06:15:27.846Z,0.84
2018-12-17T06:17:57.195Z,0.82
2018-12-17T06:20:26.633Z,0.82
2018-12-17T06:22:55.902Z,0.83
2018-12-17T06:25:25.242Z,0.84
2018-12-17T06:27:54.565Z,0.86
2018-12-17T06:30:23.852Z,0.85
2018-12-17T06:32:53.227Z,0.88
2018-12-17T06:35:22.507Z,0.89
2018-12-17T06:37:51.837Z,0.92
2018-12-17T06:40:21.137Z,0.93
2018-12-17T06:42:50.539Z,0.95
2018-12-17T06:45:19.823Z,0.98
2018-12-17T06:47:49.155Z,1.00
2018-12-17T06:50:18.415Z,1.02
2018-12-17T06:52:47.753Z,1.02
2018-12-17T06:55:17.154Z,1.04
2018-12-17T06:57:46.421Z,1.07
2018-12-17T07:00:15.718Z,1.08
2018-12-17T07:02:44.979Z,1.11
2018-12-17T07:05:14.245Z,1.11
2018-12-17T07:07:43.579Z,1.13
2018-12-17T07:10:12.931Z,1.10
2018-12-17T07:12:42.265Z,1.09
2018-12-17T07:15:11.728Z,1.11
2018-12-17T07:17:41.078Z,1.10
2018-12-17T07:20:10.363Z,1.08
2018-12-17T07:22:39.636Z,1.07
2018-12-17T07:25:08.975Z,1.08
2018-12-17T07:27:38.373Z,1.10
2018-12-17T07:30:08.401Z,1.36
2018-12-17T07:32:38.066Z,1.63
2018-12-17T07:35:07.691Z,1.90
2018-12-17T07:37:36.873Z,1.90
2018-12-17T07:40:06.959Z,1.80
2018-12-17T07:42:36.479Z,1.73
2018-12-17T07:45:06.218Z,1.67
2018-12-17T07:47:35.496Z,1.59
2018-12-17T07:50:05.709Z,1.49
2018-12-17T07:52:35.355Z,1.45
2018-12-17T07:55:05.138Z,1.41
2018-12-17T07:57:34.438Z,1.37
2018-12-17T08:00:03.915Z,1.36
2018-12-17T08:02:33.219Z,1.36
2018-12-17T08:05:02.593Z,1.38
2018-12-17T08:07:31.863Z,1.38
2018-12-17T08:10:01.327Z,1.40
2018-12-17T08:12:30.684Z,1.41
2018-12-17T08:15:00.201Z,1.47
2018-12-17T08:17:29.588Z,1.49
2018-12-17T08:19:58.875Z,1.53
2018-12-17T08:22:28.329Z,1.55
2018-12-17T08:24:57.705Z,1.60
2018-12-17T08:27:27.459Z,1.61
2018-12-17T08:30:03.734Z,1.58
2018-12-17T08:32:26.055Z,1.61
2018-12-17T08:34:55.323Z,1.60
2018-12-17T08:37:24.635Z,1.63
2018-12-17T08:39:53.913Z,1.61
2018-12-17T08:42:23.513Z,1.62
2018-12-17T08:44:52.862Z,1.63
2018-12-17T08:47:22.257Z,1.64
2018-12-17T08:49:51.483Z,1.67
2018-12-17T08:52:20.779Z,1.72
2018-12-17T08:54:50.083Z,1.75
2018-12-17T08:57:19.387Z,1.83
2018-12-17T08:59:48.665Z,1.84
2018-12-17T09:02:17.983Z,1.86
2018-12-17T09:04:47.341Z,1.86
2018-12-17T09:07:16.751Z,1.87
2018-12-17T09:09:46.078Z,1.90
2018-12-17T09:12:15.469Z,1.92
2018-12-17T09:14:44.852Z,1.96
2018-12-17T09:17:14.155Z,1.96
2018-12-17T09:19:43.503Z,1.99
2018-12-17T09:22:12.851Z,2.01
2018-12-17T09:24:42.163Z,2.08
2018-12-17T09:27:11.422Z,2.10
2018-12-17T09:29:40.773Z,2.15
2018-12-17T09:32:10.112Z,2.15
2018-12-17T09:34:39.430Z,2.20
2018-12-17T09:37:08.759Z,2.23
2018-12-17T09:39:38.121Z,2.36
2018-12-17T09:42:07.383Z,2.38
2018-12-17T09:44:36.694Z,2.38
2018-12-17T09:47:05.986Z,2.44
2018-12-17T09:49:35.262Z,2.49
2018-12-17T09:52:04.516Z,2.54
2018-12-17T09:54:33.886Z,2.59
2018-12-17T09:57:03.237Z,2.68
2018-12-17T09:59:32.572Z,2.74
2018-12-17T10:02:01.858Z,2.84
2018-12-17T10:04:31.192Z,2.96
2018-12-17T10:07:00.562Z,2.96
2018-12-17T10:09:29.918Z,2.96
2018-12-17T10:11:59.263Z,2.98
2018-12-17T10:14:28.595Z,3.02
2018-12-17T10:16:58.147Z,3.05
2018-12-17T10:19:27.400Z,3.01
2018-12-17T10:21:56.745Z,3.02
2018-12-17T10:24:26.004Z,3.04
2018-12-17T10:26:55.302Z,3.02
2018-12-17T10:29:24.638Z,3.09
2018-12-17T10:31:53.970Z,3.05
2018-12-17T10:34:23.433Z,3.07
2018-12-17T10:36:52.734Z,3.00
2018-12-17T10:39:22.185Z,2.99
2018-12-17T10:41:51.487Z,2.99
2018-12-17T10:44:20.822Z,3.05
2018-12-17T10:46:50.141Z,3.07
2018-12-17T10:49:19.420Z,3.06
2018-12-17T10:51:48.735Z,3.10
2018-12-17T10:54:18.021Z,3.16
2018-12-17T10:56:47.347Z,3.23
2018-12-17T10:59:16.591Z,3.26
2018-12-17T11:02:07.655Z,3.32
2018-12-17T11:04:49.262Z,3.38
2018-12-17T11:07:18.533Z,3.43
2018-12-17T11:09:47.797Z,3.47
2018-12-17T11:12:17.120Z,3.52
2018-12-17T11:14:46.582Z,3.49
2018-12-17T11:17:15.828Z,3.46
2018-12-17T11:19:45.174Z,3.46
2018-12-17T11:22:14.454Z,3.46
2018-12-17T11:24:43.760Z,3.44
2018-12-17T11:27:13.130Z,3.43
2018-12-17T11:29:42.885Z,3.39
2018-12-17T11:32:12.129Z,3.40
2018-12-17T11:34:41.483Z,3.42
2018-12-17T11:37:10.839Z,3.47
2018-12-17T11:39:40.182Z,3.49
2018-12-17T11:42:09.433Z,3.51
2018-12-17T11:44:38.775Z,3.54
2018-12-17T11:47:08.065Z,3.29
2018-12-17T11:49:37.467Z,3.61
2018-12-17T11:52:06.869Z,3.67
2018-12-17T11:54:36.193Z,3.69
2018-12-17T11:58:14.651Z,3.77
2018-12-17T12:01:04.158Z,3.81
2018-12-17T12:03:35.469Z,3.93
2018-12-17T12:06:04.773Z,4.09
2018-12-17T12:08:34.145Z,4.23
2018-12-17T12:11:03.510Z,4.42
2018-12-17T12:13:32.800Z,4.52
2018-12-17T12:16:02.173Z,4.59
2018-12-17T12:18:31.527Z,4.76
2018-12-17T12:21:00.854Z,4.78
2018-12-17T12:23:30.983Z,4.85
2018-12-17T12:26:00.367Z,4.79
2018-12-17T12:28:29.631Z,4.88
2018-12-17T12:31:00.565Z,4.80
2018-12-17T12:33:28.190Z,4.78
2018-12-17T12:35:57.485Z,4.91
2018-12-17T12:38:26.830Z,5.14
2018-12-17T12:40:56.161Z,5.34
2018-12-17T12:43:25.457Z,5.37
2018-12-17T12:45:54.734Z,5.34
2018-12-17T12:48:24.037Z,5.29
2018-12-17T12:50:53.395Z,5.05
2018-12-17T12:53:25.621Z,5.05
2018-12-17T12:55:54.935Z,5.00
2018-12-17T12:58:24.285Z,4.93
2018-12-17T13:00:53.593Z,4.93
2018-12-17T13:03:22.883Z,4.83
2018-12-17T13:05:52.187Z,4.87
2018-12-17T13:08:21.469Z,4.87
2018-12-17T13:10:50.874Z,4.88
2018-12-17T13:13:20.187Z,4.92
2018-12-17T13:15:49.703Z,4.93
2018-12-17T13:18:19.011Z,4.92
2018-12-17T13:20:48.305Z,4.94
2018-12-17T13:23:17.649Z,4.97
2018-12-17T13:25:49.975Z,4.94
2018-12-17T13:28:19.393Z,4.93
2018-12-17T13:30:48.664Z,4.95
2018-12-17T13:33:17.997Z,4.96
2018-12-17T13:35:47.539Z,4.94
2018-12-17T13:38:16.875Z,4.90
2018-12-17T13:40:46.184Z,4.85
2018-12-17T13:43:15.478Z,4.82
2018-12-17T13:45:44.833Z,4.84
2018-12-17T13:48:14.204Z,4.80
2018-12-17T13:50:43.458Z,4.77
2018-12-17T13:53:30.403Z,4.74
2018-12-17T13:55:59.795Z,4.73
2018-12-17T13:58:29.281Z,4.69
2018-12-17T14:00:58.548Z,4.65
2018-12-17T14:03:28.005Z,4.60
2018-12-17T14:05:57.296Z,4.54
2018-12-17T14:08:26.574Z,4.51
2018-12-17T14:10:55.849Z,4.44
2018-12-17T14:13:25.179Z,4.37
2018-12-17T14:16:13.610Z,4.34
2018-12-17T14:19:01.650Z,4.48
2018-12-17T14:21:48.870Z,4.58
2018-12-17T14:24:18.168Z,4.49
2018-12-17T14:26:47.541Z,4.39
2018-12-17T14:29:16.849Z,4.35
2018-12-17T14:31:46.119Z,4.28
2018-12-17T14:34:15.400Z,4.21
2018-12-17T14:36:44.672Z,4.14
2018-12-17T14:39:13.946Z,4.12
2018-12-17T14:41:43.217Z,4.09
2018-12-17T14:44:30.489Z,4.08
2018-12-17T14:46:59.798Z,4.06
2018-12-17T14:49:29.113Z,4.04
2018-12-17T14:51:58.380Z,4.05
2018-12-17T14:54:27.691Z,4.05
2018-12-17T14:56:57.225Z,4.08
2018-12-17T14:59:26.522Z,4.05
2018-12-17T15:01:55.855Z,4.09
2018-12-17T15:04:25.235Z,4.12
2018-12-17T15:06:54.555Z,4.12
2018-12-17T15:09:23.844Z,4.09
2018-12-17T15:11:53.170Z,4.11
2018-12-17T15:14:22.456Z,4.10
2018-12-17T15:16:51.898Z,4.07
2018-12-17T15:19:21.237Z,4.06
2018-12-17T15:21:50.516Z,4.05
2018-12-17T15:24:19.787Z,4.06
2018-12-17T15:26:49.132Z,4.05
2018-12-17T15:32:50.161Z,4.01
2018-12-17T15:35:31.623Z,4.00
2018-12-17T15:38:14.829Z,4.04
2018-12-17T15:40:57.710Z,4.04
2018-12-17T15:43:50.435Z,4.03
2018-12-17T15:46:26.703Z,4.07
2018-12-17T15:48:57.240Z,4.06
2018-12-17T15:51:26.616Z,4.05
2018-12-17T15:53:56.536Z,4.05
2018-12-17T15:56:25.918Z,4.03
2018-12-17T15:59:35.405Z,4.01
2018-12-17T16:02:04.916Z,4.01
2018-12-17T16:04:52.320Z,4.00
2018-12-17T16:07:51.715Z,3.98
2018-12-17T16:10:43.616Z,4.00
2018-12-17T16:13:14.806Z,3.98
2018-12-17T16:15:56.599Z,3.99
2018-12-17T16:18:34.395Z,4.03
2018-12-17T16:21:27.565Z,4.03
2018-12-17T16:24:28.314Z,4.06
2018-12-17T16:27:27.816Z,4.05
2018-12-17T16:30:13.760Z,4.12
2018-12-17T16:33:03.198Z,4.13
2018-12-17T16:35:39.446Z,4.17
2018-12-17T16:38:09.357Z,4.19
2018-12-17T16:40:38.854Z,4.23
2018-12-17T16:43:08.218Z,4.23
2018-12-17T16:45:39.800Z,4.25
2018-12-17T16:48:32.880Z,4.26
2018-12-17T16:51:17.907Z,4.27
2018-12-17T16:53:56.327Z,4.26
2018-12-17T16:56:34.282Z,4.26
2018-12-17T16:59:23.498Z,4.24
2018-12-17T17:02:19.484Z,4.26
2018-12-17T17:05:10.966Z,4.26
2018-12-17T17:08:17.130Z,4.26
2018-12-17T17:11:15.768Z,4.29
2018-12-17T17:14:05.725Z,4.26
2018-12-17T17:17:05.629Z,4.23
2018-12-17T17:20:30.118Z,-0.48
2018-12-17T17:23:05.872Z,4.20
2018-12-17T17:29:06.647Z,0.11
2018-12-17T17:32:11.544Z,4.21
2018-12-17T17:34:13.886Z,4.20
2018-12-17T17:36:43.215Z,4.20
2018-12-17T17:39:12.559Z,4.19
2018-12-17T17:41:41.869Z,4.21
2018-12-17T17:44:11.403Z,4.23
2018-12-17T17:46:40.735Z,4.24
2018-12-17T17:49:10.105Z,4.28
2018-12-17T17:51:39.545Z,4.27
2018-12-17T17:54:08.895Z,4.27
2018-12-17T17:56:38.247Z,4.32
2018-12-17T17:59:07.556Z,4.32
2018-12-17T18:01:37.091Z,4.33
2018-12-17T18:04:06.545Z,4.34
2018-12-17T18:06:35.977Z,4.34
2018-12-17T18:09:08.749Z,4.36
2018-12-17T18:11:38.099Z,4.35
2018-12-17T18:14:07.432Z,4.37
2018-12-17T18:16:36.737Z,4.38
2018-12-17T18:19:07.610Z,4.38
2018-12-17T18:21:37.046Z,4.45
2018-12-17T18:24:06.353Z,4.41
2018-12-17T18:26:35.910Z,4.41
2018-12-17T18:29:05.246Z,4.41
2018-12-17T18:31:34.627Z,4.42
2018-12-17T18:34:03.979Z,4.43
2018-12-17T18:36:33.313Z,4.44
2018-12-17T18:39:02.820Z,4.45
2018-12-17T18:41:32.200Z,4.48
2018-12-17T18:44:01.531Z,4.48
2018-12-17T18:46:30.929Z,4.49
2018-12-17T18:49:00.451Z,4.50
2018-12-17T18:51:29.858Z,4.52
2018-12-17T18:53:59.185Z,4.49
2018-12-17T18:56:28.515Z,4.49
2018-12-17T18:58:57.899Z,4.52
2018-12-17T19:01:27.229Z,4.52
2018-12-17T19:03:56.519Z,4.49
2018-12-17T19:06:25.925Z,4.49
2018-12-17T19:08:55.205Z,4.46
2018-12-17T19:11:24.526Z,4.45
2018-12-17T19:13:53.954Z,4.43
2018-12-17T19:16:23.340Z,4.42
2018-12-17T19:18:52.719Z,4.41
2018-12-17T19:21:22.040Z,4.41
2018-12-17T19:23:51.462Z,4.40
2018-12-17T19:26:20.839Z,4.40
2018-12-17T19:28:50.219Z,4.39
2018-12-17T19:31:19.646Z,4.41
2018-12-17T19:33:49.015Z,4.40
2018-12-17T19:36:18.639Z,4.39
2018-12-17T19:38:47.997Z,4.43
2018-12-17T19:41:17.292Z,4.39
2018-12-17T19:43:46.598Z,4.38
2018-12-17T19:46:16.074Z,4.37
2018-12-17T19:48:45.383Z,4.38
2018-12-17T19:51:14.783Z,4.38
2018-12-17T19:53:44.206Z,4.38
2018-12-17T19:56:13.593Z,4.42
2018-12-17T19:58:42.889Z,4.39
2018-12-17T20:01:12.321Z,4.38
2018-12-17T20:03:41.657Z,4.37
2018-12-17T20:06:11.102Z,4.43
2018-12-17T20:08:40.439Z,4.46
2018-12-17T20:11:09.792Z,4.44
2018-12-17T20:13:39.132Z,4.45
2018-12-17T20:16:08.457Z,4.45
2018-12-17T20:18:37.832Z,4.48
2018-12-17T20:21:07.173Z,4.46
2018-12-17T20:23:36.523Z,4.52
2018-12-17T20:26:05.880Z,4.51
2018-12-17T20:28:35.204Z,4.53
2018-12-17T20:31:04.498Z,4.52
2018-12-17T20:33:33.851Z,4.54
2018-12-17T20:36:03.217Z,4.55
2018-12-17T20:38:32.665Z,4.54
2018-12-17T20:41:02.034Z,4.55
2018-12-17T20:43:31.383Z,4.55
2018-12-17T20:46:00.750Z,4.54
2018-12-17T20:48:30.105Z,4.55
2018-12-17T20:50:59.419Z,4.56
2018-12-17T20:53:28.785Z,4.54
2018-12-17T20:55:58.176Z,4.52
2018-12-17T20:58:27.521Z,4.51
2018-12-17T21:00:56.826Z,4.51
2018-12-17T21:03:26.189Z,4.52
2018-12-17T21:05:55.463Z,4.52
2018-12-17T21:08:24.784Z,4.56
2018-12-17T21:10:54.349Z,4.78
2018-12-17T21:13:23.681Z,4.86
2018-12-17T21:15:53.047Z,4.86
2018-12-17T21:18:22.367Z,4.78
2018-12-17T21:20:51.701Z,4.72
2018-12-17T21:23:21.033Z,4.68
2018-12-17T21:25:50.365Z,4.64
2018-12-17T21:28:19.649Z,4.60
2018-12-17T21:30:48.938Z,4.57
2018-12-17T21:33:18.264Z,4.58
2018-12-17T21:35:47.584Z,4.59
2018-12-17T21:38:16.888Z,4.59
2018-12-17T21:40:46.221Z,4.58
2018-12-17T21:43:15.572Z,4.59
2018-12-17T21:45:45.015Z,4.59
2018-12-17T21:48:14.345Z,4.61
2018-12-17T21:50:43.688Z,4.57
2018-12-17T21:53:12.956Z,4.58
2018-12-17T21:55:42.287Z,4.58
2018-12-17T21:58:11.696Z,4.58
2018-12-17T22:00:41.121Z,4.59
2018-12-17T22:03:13.294Z,4.59
2018-12-17T22:05:39.728Z,4.62
2018-12-17T22:08:09.235Z,4.64
2018-12-17T22:10:38.544Z,4.66
2018-12-17T22:13:07.894Z,4.67
2018-12-17T22:15:37.252Z,4.66
2018-12-17T22:18:06.659Z,4.68
2018-12-17T22:20:36.026Z,4.71
2018-12-17T22:23:05.385Z,4.69
2018-12-17T22:25:34.742Z,4.69
2018-12-17T22:28:04.077Z,4.68
2018-12-17T22:30:33.436Z,4.68
2018-12-17T22:33:02.719Z,4.69
2018-12-17T22:35:32.040Z,4.72
2018-12-17T22:38:01.426Z,4.72
2018-12-17T22:40:31.006Z,4.73
2018-12-17T22:43:00.323Z,4.69
2018-12-17T22:45:29.677Z,4.68
2018-12-17T22:47:58.991Z,4.65
2018-12-17T22:50:28.365Z,4.71
2018-12-17T22:52:57.664Z,4.75
2018-12-17T22:55:27.079Z,4.80
2018-12-17T22:57:56.418Z,4.83
2018-12-17T23:00:25.742Z,4.85
2018-12-17T23:02:55.067Z,4.85
2018-12-17T23:05:24.370Z,4.85
2018-12-17T23:07:53.770Z,4.86
2018-12-17T23:11:02.455Z,4.89
2018-12-17T23:14:05.293Z,4.93
2018-12-17T23:17:11.162Z,4.96
2018-12-17T23:19:42.278Z,4.96
2018-12-17T23:22:11.799Z,4.95
2018-12-17T23:24:41.080Z,4.93
2018-12-17T23:27:10.364Z,4.91
2018-12-17T23:29:39.618Z,4.88
2018-12-17T23:32:08.969Z,4.88
2018-12-17T23:34:38.254Z,4.84
2018-12-17T23:37:07.568Z,4.84
2018-12-17T23:39:36.850Z,4.85
2018-12-17T23:42:06.170Z,4.86
2018-12-17T23:44:38.705Z,4.85
2018-12-17T23:47:08.008Z,4.85
2018-12-17T23:49:37.372Z,4.86
2018-12-17T23:52:06.635Z,4.86
2018-12-17T23:54:35.938Z,4.87
2018-12-17T23:57:05.316Z,4.87
2018-12-17T23:59:34.793Z,4.88
